Weather History for Darlington, SC

Change the Weather History Date:

Thursday, March 28, 2013

  Actual Average (KFLO) Record (KFLO)
Temperature  
Mean Temperature 44 °F 59 °F  
Max Temperature 59 °F 71 °F 87 °F (2007)
Min Temperature 30 °F 46 °F 28 °F (1982)
Degree Days  
Heating Degree Days 20 7  
Month to date heating degree days 288  
Since 1 July heating degree days 2354  
Cooling Degree Days 0 1  
Month to date cooling degree days 15  
Year to date cooling degree days 21  
Moisture  
Dew Point 22 °F    
Average Humidity 45    
Maximum Humidity 70    
Minimum Humidity 23    
Precipitation  
Precipitation 0.00 in 0.10 in 1.63 in (1980)
Month to date precipitation 3.01  
Year to date precipitation 9.16  
Sea Level Pressure  
Sea Level Pressure 30.26 in    
Wind  
Wind Speed 7 mph (NW)    
Max Wind Speed 16 mph    
Max Gust Speed 23 mph    
Visibility 10 miles    
Events      
T = Trace of Precipitation, MM = Missing Value Source: NWS Daily Summary

Daily Weather History Graph

Daily Weather History Graph

Search for Another Location

Airport:

Trip Planner

Search our weather history database for the weather conditions in past years. The results will help you decide how hot, cold, wet, or windy it might be!

Date:

Astronomy

Mar. 28, 2013 Rise Set
Actual Time 7:11 AM EDT 7:37 PM EDT
Civil Twilight 6:46 AM EDT 8:02 PM EDT
Nautical Twilight 6:17 AM EDT 8:32 PM EDT
Astronomical Twilight 5:47 AM EDT 9:02 PM EDT
Moon 9:21 PM EDT 7:43 AM EDT
Length of Visible Light 13h 16m
Length of Day
12h 25m
Full, 98% of the Moon is Illuminated
Mar 28
Full
Apr 3
Last Quarter
Apr 10
New
Apr 18
First Quarter
Apr 25
Full

Hourly Weather History & Observations

Time (EDT) Temp. Windchill Dew Point Humidity Pressure Visibility Wind Dir Wind Speed Gust Speed Precip Events Conditions
12:15 AM 39.2 °F 35.0 °F 21.2 °F 49% 30.26 in 10.0 mi North 5.8 mph - N/A   Clear
12:35 AM 39.2 °F 35.0 °F 23.0 °F 52% 30.26 in 10.0 mi NNW 5.8 mph - N/A   Clear
12:55 AM 39.2 °F 37.0 °F 21.2 °F 49% 30.26 in 10.0 mi North 3.5 mph - N/A   Clear
1:15 AM 39.2 °F 37.0 °F 21.2 °F 49% 30.27 in 10.0 mi North 3.5 mph - N/A   Clear
1:35 AM 37.4 °F 33.8 °F 23.0 °F 56% 30.27 in 10.0 mi NNW 4.6 mph - N/A   Clear
1:55 AM 35.6 °F 32.8 °F 21.2 °F 56% 30.26 in 10.0 mi North 3.5 mph - N/A   Clear
2:15 AM 37.4 °F 32.8 °F 21.2 °F 52% 30.26 in 10.0 mi NNW 5.8 mph - N/A   Clear
2:35 AM 35.6 °F 30.7 °F 21.2 °F 56% 30.26 in 10.0 mi NNW 5.8 mph - N/A   Clear
2:55 AM 35.6 °F 29.9 °F 21.2 °F 56% 30.26 in 10.0 mi NNW 6.9 mph - N/A   Clear
3:15 AM 35.6 °F 30.7 °F 21.2 °F 56% 30.26 in 10.0 mi North 5.8 mph - N/A   Clear
3:35 AM 35.6 °F 31.7 °F 21.2 °F 56% 30.25 in 10.0 mi NNW 4.6 mph - N/A   Clear
3:55 AM 35.6 °F - 19.4 °F 52% 30.25 in 10.0 mi Calm Calm - N/A   Clear
4:15 AM 35.6 °F - 19.4 °F 52% 30.25 in 10.0 mi North - - N/A   Clear
4:35 AM 35.6 °F 32.8 °F 19.4 °F 52% 30.25 in 10.0 mi NNW 3.5 mph - N/A   Clear
4:55 AM 35.6 °F 32.8 °F 19.4 °F 52% 30.25 in 10.0 mi NNW 3.5 mph - N/A   Clear
5:15 AM 33.8 °F - 21.2 °F 60% 30.25 in 10.0 mi Calm Calm - N/A   Clear
5:35 AM 33.8 °F - 21.2 °F 60% 30.25 in 10.0 mi Calm Calm - N/A   Clear
5:55 AM 30.2 °F - 21.2 °F 69% 30.26 in 10.0 mi Calm Calm - N/A   Clear
6:15 AM 30.2 °F 25.4 °F 21.2 °F 69% 30.26 in 10.0 mi WNW 4.6 mph - N/A   Clear
6:35 AM 30.2 °F 24.3 °F 21.2 °F 69% 30.27 in 10.0 mi NW 5.8 mph - N/A   Clear
6:55 AM 30.2 °F 24.3 °F 21.2 °F 69% 30.28 in 10.0 mi NW 5.8 mph - N/A   Clear
7:15 AM 30.2 °F 23.4 °F 21.2 °F 69% 30.28 in 10.0 mi NW 6.9 mph - N/A   Clear
7:35 AM 32.0 °F 25.6 °F 21.2 °F 64% 30.28 in 10.0 mi NW 6.9 mph - N/A   Clear
7:55 AM 33.8 °F 28.6 °F 21.2 °F 60% 30.29 in 10.0 mi NW 5.8 mph - N/A   Clear
8:15 AM 35.6 °F 30.7 °F 23.0 °F 60% 30.30 in 10.0 mi NW 5.8 mph - N/A   Clear
8:35 AM 37.4 °F 31.4 °F 23.0 °F 56% 30.30 in 10.0 mi NW 8.1 mph - N/A   Clear
8:55 AM 39.2 °F 33.0 °F 23.0 °F 52% 30.31 in 10.0 mi NW 9.2 mph - N/A   Clear
9:15 AM 42.8 °F 38.0 °F 24.8 °F 49% 30.31 in 10.0 mi NW 8.1 mph - N/A   Clear
9:35 AM 44.6 °F 38.4 °F 24.8 °F 46% 30.31 in 10.0 mi NNW 12.7 mph 16.1 mph N/A   Clear
9:55 AM 46.4 °F 39.8 °F 21.2 °F 37% 30.32 in 10.0 mi North 16.1 mph 20.7 mph N/A   Clear
10:15 AM 48.2 °F - 21.2 °F 34% 30.31 in 10.0 mi NNW 12.7 mph - N/A   Clear
10:35 AM 48.2 °F - 23.0 °F 37% 30.31 in 10.0 mi NW 15.0 mph 20.7 mph N/A   Clear
10:55 AM 48.2 °F - 21.2 °F 34% 30.31 in 10.0 mi NW 13.8 mph 18.4 mph N/A   Clear
11:15 AM 50.0 °F - 21.2 °F 32% 30.31 in 10.0 mi NNW 10.4 mph 19.6 mph N/A   Clear
11:35 AM 51.8 °F - 21.2 °F 30% 30.30 in 10.0 mi North 15.0 mph 21.9 mph N/A   Clear
11:55 AM 51.8 °F - 21.2 °F 30% 30.30 in 10.0 mi NW 11.5 mph 19.6 mph N/A   Clear
12:15 PM 51.8 °F - 21.2 °F 30% 30.29 in 10.0 mi NW 12.7 mph 16.1 mph N/A   Clear
12:35 PM 53.6 °F - 21.2 °F 28% 30.28 in 10.0 mi NW 15.0 mph 20.7 mph N/A   Clear
12:55 PM 53.6 °F - 21.2 °F 28% 30.28 in 10.0 mi North 13.8 mph 23.0 mph N/A   Clear
1:15 PM 53.6 °F - 21.2 °F 28% 30.27 in 10.0 mi North 15.0 mph 20.7 mph N/A   Clear
1:35 PM 53.6 °F - 21.2 °F 28% 30.27 in 10.0 mi WNW 8.1 mph 19.6 mph N/A   Clear
1:55 PM 55.4 °F - 21.2 °F 26% 30.26 in 10.0 mi NW 12.7 mph 19.6 mph N/A   Clear
2:15 PM 55.4 °F - 23.0 °F 29% 30.25 in 10.0 mi West 11.5 mph 17.3 mph N/A   Clear
2:35 PM 55.4 °F - 21.2 °F 26% 30.24 in 10.0 mi NNW 8.1 mph - N/A   Clear
2:55 PM 57.2 °F - 21.2 °F 25% 30.24 in 10.0 mi NW 12.7 mph - N/A   Clear
3:15 PM 57.2 °F - 21.2 °F 25% 30.23 in 10.0 mi NW 15.0 mph 19.6 mph N/A   Clear
3:35 PM 57.2 °F - 21.2 °F 25% 30.22 in 10.0 mi NW 9.2 mph 16.1 mph N/A   Clear
3:55 PM 57.2 °F - 21.2 °F 25% 30.21 in 10.0 mi NW 10.4 mph 17.3 mph N/A   Clear
4:15 PM 59.0 °F - 21.2 °F 23% 30.21 in 10.0 mi WNW 10.4 mph 18.4 mph N/A   Clear
4:35 PM 57.2 °F - 21.2 °F 25% 30.21 in 10.0 mi NW 13.8 mph 20.7 mph N/A   Clear
4:55 PM 57.2 °F - 21.2 °F 25% 30.21 in 10.0 mi NNW 11.5 mph 16.1 mph N/A   Clear
5:15 PM 57.2 °F - 19.4 °F 23% 30.21 in 10.0 mi NW 9.2 mph 19.6 mph N/A   Clear
5:35 PM 57.2 °F - 21.2 °F 25% 30.21 in 10.0 mi NW 9.2 mph 16.1 mph N/A   Clear
5:55 PM 57.2 °F - 21.2 °F 25% 30.21 in 10.0 mi NNW 15.0 mph 19.6 mph N/A   Clear
6:15 PM 57.2 °F - 21.2 °F 25% 30.21 in 10.0 mi NW 13.8 mph - N/A   Clear
6:35 PM 57.2 °F - 19.4 °F 23% 30.21 in 10.0 mi WNW 12.7 mph 19.6 mph N/A   Clear
6:55 PM 57.2 °F - 21.2 °F 25% 30.22 in 10.0 mi NNW 6.9 mph - N/A   Clear
7:15 PM 55.4 °F - 21.2 °F 26% 30.23 in 10.0 mi NW 8.1 mph - N/A   Clear
7:35 PM 53.6 °F - 21.2 °F 28% 30.23 in 10.0 mi NNW 5.8 mph - N/A   Clear
7:55 PM 51.8 °F - 21.2 °F 30% 30.24 in 10.0 mi NNW 3.5 mph - N/A   Clear
8:15 PM 48.2 °F - 24.8 °F 40% 30.24 in 10.0 mi NW 3.5 mph - N/A   Clear
8:35 PM 46.4 °F - 26.6 °F 46% 30.25 in 10.0 mi Calm Calm - N/A   Clear
8:55 PM 44.6 °F - 26.6 °F 49% 30.26 in 10.0 mi Calm Calm - N/A   Clear
9:15 PM 42.8 °F - 28.4 °F 57% 30.26 in 10.0 mi Calm Calm - N/A   Clear
9:35 PM 42.8 °F - 28.4 °F 57% 30.27 in 10.0 mi Calm Calm - N/A   Clear
9:55 PM 42.8 °F - 24.8 °F 49% 30.27 in 10.0 mi Calm Calm - N/A   Clear
10:15 PM 41.0 °F - 28.4 °F 61% 30.28 in 10.0 mi Calm Calm - N/A   Clear
10:35 PM 39.2 °F - 28.4 °F 65% 30.29 in 10.0 mi Calm Calm - N/A   Clear
10:55 PM 37.4 °F 34.9 °F 28.4 °F 70% 30.29 in 10.0 mi WNW 3.5 mph - N/A   Clear
11:15 PM 37.4 °F 34.9 °F 28.4 °F 70% 30.30 in 10.0 mi NW 3.5 mph - N/A   Clear
11:35 PM 37.4 °F - 26.6 °F 65% 30.30 in 10.0 mi Calm Calm - N/A   Clear
11:55 PM 37.4 °F 33.8 °F 28.4 °F 70% 30.30 in 10.0 mi NNW 4.6 mph - N/A   Clear